Time;durP1;ratioP1;P1;durP2;ratioP2;P2;SDS_P1;SDS_P2;PMS_P1;PMS_P2;Temp;Humidity;BMP_temperature;BMP_pressure;BME280_temperature;BME280_humidity;BME280_pressure;Samples;Min_cycle;Max_cycle;Signal;HPM_P1;HPM_P2
2021/03/30 00:01:07;;;;;;;10.32;4.43;;;;;;;6.82;70.73;101782.00;20826865;28;20110;-72
2021/03/30 00:11:08;;;;;;;9.30;4.13;;;;;;;6.73;71.36;101784.78;20823689;28;21105;-72
2021/03/30 00:21:09;;;;;;;9.50;3.78;;;;;;;6.56;72.12;101785.91;20826028;28;20081;-72
2021/03/30 00:31:10;;;;;;;7.97;3.60;;;;;;;6.26;72.50;101780.28;20824184;28;20057;-72
2021/03/30 00:41:11;;;;;;;9.07;3.38;;;;;;;6.20;73.16;101772.56;20837985;28;20448;-73
2021/03/30 00:51:13;;;;;;;8.25;3.55;;;;;;;6.00;72.87;101774.59;20823301;28;20136;-73
2021/03/30 01:01:14;;;;;;;8.13;3.58;;;;;;;5.90;72.88;101768.66;20776545;28;20439;-73
2021/03/30 01:11:33;;;;;;;9.40;4.10;;;;;;;5.65;74.01;101762.03;20811373;28;20045;-72
2021/03/30 01:21:34;;;;;;;9.23;3.60;;;;;;;5.53;74.94;101773.44;20904016;28;20045;-72
2021/03/30 01:31:36;;;;;;;10.93;3.92;;;;;;;5.53;73.76;101770.84;20902374;28;20055;-73
2021/03/30 01:41:42;;;;;;;7.95;3.88;;;;;;;5.12;74.69;101781.66;20889995;28;20424;-73
2021/03/30 01:51:44;;;;;;;9.35;4.30;;;;;;;5.13;73.90;101778.16;20902243;28;20102;-72
2021/03/30 02:01:47;;;;;;;10.88;3.70;;;;;;;4.99;75.17;101776.56;20837952;28;20054;-72
2021/03/30 02:11:53;;;;;;;7.50;3.50;;;;;;;4.89;76.97;101772.34;20874400;28;20394;-73
2021/03/30 02:22:07;;;;;;;11.55;4.20;;;;;;;4.69;76.60;101769.94;20931802;28;20045;-73
2021/03/30 02:32:16;;;;;;;9.32;4.90;;;;;;;4.42;79.39;101770.16;20899866;28;20049;-73
2021/03/30 02:42:19;;;;;;;16.27;5.30;;;;;;;4.40;79.22;101766.72;20868350;28;20102;-73
2021/03/30 02:52:23;;;;;;;9.27;4.55;;;;;;;4.32;81.03;101775.38;20842693;28;20132;-73
2021/03/30 03:02:27;;;;;;;10.50;5.23;;;;;;;4.29;80.30;101774.56;20740890;28;20057;-73
2021/03/30 03:12:35;;;;;;;11.65;6.07;;;;;;;4.13;82.40;101783.28;20840882;28;20560;-73
2021/03/30 03:22:38;;;;;;;14.85;5.18;;;;;;;4.04;82.47;101786.78;20866656;28;20045;-73
2021/03/30 03:32:43;;;;;;;10.32;4.60;;;;;;;3.96;83.50;101780.81;20829581;28;20057;-72
2021/03/30 03:42:44;;;;;;;10.70;4.82;;;;;;;3.80;82.63;101773.97;20870535;28;20079;-73
2021/03/30 03:52:52;;;;;;;11.98;5.22;;;;;;;3.73;83.31;101778.31;20877397;28;20065;-73
2021/03/30 04:03:05;;;;;;;10.27;5.30;;;;;;;3.65;83.72;101795.59;20826848;28;20100;-73
2021/03/30 04:13:06;;;;;;;11.82;5.18;;;;;;;3.47;84.78;101785.28;20871691;28;20592;-73
2021/03/30 04:23:08;;;;;;;10.77;5.20;;;;;;;3.22;85.66;101791.41;20907958;28;20053;-73
2021/03/30 04:33:09;;;;;;;16.52;6.43;;;;;;;3.21;84.62;101792.25;20905444;28;20049;-73
2021/03/30 04:43:10;;;;;;;14.73;5.68;;;;;;;2.89;86.63;101784.56;20875675;28;20041;-73
2021/03/30 04:53:12;;;;;;;9.98;5.53;;;;;;;3.00;85.99;101804.34;20742908;28;20046;-72
2021/03/30 05:03:13;;;;;;;18.98;6.20;;;;;;;2.99;86.37;101812.13;20739712;28;20093;-72
2021/03/30 05:13:14;;;;;;;13.13;5.47;;;;;;;3.06;85.69;101811.25;20810632;28;20057;-72
2021/03/30 05:23:15;;;;;;;13.40;6.47;;;;;;;2.68;87.25;101816.44;20820329;28;20129;-73
2021/03/30 05:33:16;;;;;;;14.35;6.80;;;;;;;2.78;87.11;101817.31;20819736;28;20049;-73
2021/03/30 05:43:18;;;;;;;16.30;6.47;;;;;;;2.93;87.09;101831.09;20865485;28;20041;-73
2021/03/30 05:53:22;;;;;;;12.55;5.95;;;;;;;3.16;86.29;101836.25;20900714;28;20049;-71
2021/03/30 06:03:25;;;;;;;11.57;5.80;;;;;;;3.39;85.54;101844.84;20898795;28;20041;-72
2021/03/30 06:13:47;;;;;;;11.10;5.85;;;;;;;3.70;85.35;101852.56;20869208;28;20468;-72
2021/03/30 06:23:48;;;;;;;11.85;6.65;;;;;;;4.09;84.15;101855.00;20899429;28;20049;-71
2021/03/30 06:33:54;;;;;;;12.18;6.45;;;;;;;4.51;81.90;101853.06;20856170;28;20084;-71
2021/03/30 06:54:23;;;;;;;15.98;8.13;;;;;;;5.60;77.40;101863.38;20843144;28;20067;-71
2021/03/30 07:04:24;;;;;;;13.68;6.90;;;;;;;6.17;75.13;101861.00;20845342;28;20489;-71
2021/03/30 07:14:25;;;;;;;13.35;4.68;;;;;;;6.67;71.52;101860.31;20856979;28;20049;-71
2021/03/30 07:24:34;;;;;;;13.48;4.78;;;;;;;7.10;69.55;101864.84;20865133;28;20041;-70
2021/03/30 07:34:46;;;;;;;10.23;4.85;;;;;;;7.51;67.73;101858.94;20840112;28;20040;-71
2021/03/30 07:44:49;;;;;;;8.05;4.68;;;;;;;8.07;63.15;101865.66;20832638;28;20119;-70
2021/03/30 07:55:14;;;;;;;11.15;4.65;;;;;;;8.69;59.96;101866.06;20859728;28;20453;-71
2021/03/30 08:05:15;;;;;;;9.13;4.65;;;;;;;8.92;56.85;101864.66;20847199;28;20106;-71
2021/03/30 08:15:44;;;;;;;9.50;4.38;;;;;;;9.50;54.85;101872.78;20838057;28;20052;-71
2021/03/30 08:25:47;;;;;;;11.13;5.47;;;;;;;10.09;51.12;101864.16;20833437;28;20061;-71
2021/03/30 08:35:49;;;;;;;10.60;5.28;;;;;;;10.52;53.69;101857.66;20843490;28;20496;-72
2021/03/30 08:45:55;;;;;;;10.00;5.35;;;;;;;11.23;50.88;101862.34;20913837;28;20412;-71
2021/03/30 08:56:00;;;;;;;15.77;6.40;;;;;;;11.39;52.83;101864.41;20900770;28;20045;-72
2021/03/30 09:06:01;;;;;;;10.47;5.57;;;;;;;11.56;53.43;101855.97;20836749;28;20046;-71
2021/03/30 09:16:09;;;;;;;8.82;4.88;;;;;;;12.42;49.34;101857.19;20849505;28;20049;-71
2021/03/30 09:26:14;;;;;;;9.63;4.82;;;;;;;12.71;46.71;101838.50;20827395;28;20073;-71
2021/03/30 09:36:15;;;;;;;;;;;;;;;13.22;45.96;101845.19;20835230;28;20037;-69
2021/03/30 09:46:16;;;;;;;13.68;5.88;;;;;;;13.92;43.36;101847.38;20816966;28;19927;-70
2021/03/30 09:56:28;;;;;;;12.50;5.63;;;;;;;14.67;41.10;101834.25;20876347;28;20065;-70
2021/03/30 10:06:29;;;;;;;10.35;5.30;;;;;;;14.65;41.17;101815.88;20857348;28;20041;-70
2021/03/30 10:16:30;;;;;;;14.77;5.28;;;;;;;15.25;42.04;101806.69;20864352;28;20060;-71
2021/03/30 10:26:31;;;;;;;10.50;5.60;;;;;;;15.74;40.98;101805.03;20831556;28;20052;-70
2021/03/30 10:36:33;;;;;;;12.60;6.50;;;;;;;15.94;41.28;101797.81;20817464;28;20052;-70
2021/03/30 10:46:46;;;;;;;14.93;6.25;;;;;;;16.45;40.25;101796.72;20857278;28;20053;-70
2021/03/30 10:56:47;;;;;;;13.35;5.75;;;;;;;17.00;38.32;101779.41;20827371;28;20091;-69
2021/03/30 11:06:48;;;;;;;13.75;5.93;;;;;;;17.48;38.45;101770.31;20821827;28;20064;-69
2021/03/30 11:16:49;;;;;;;11.75;5.65;;;;;;;17.59;38.17;101751.16;20834242;28;20127;-69
2021/03/30 11:26:52;;;;;;;10.80;5.10;;;;;;;17.95;38.83;101738.25;20841199;28;20054;-71
2021/03/30 11:37:02;;;;;;;11.27;5.40;;;;;;;17.93;36.73;101729.53;20838602;28;20041;-69
2021/03/30 11:47:03;;;;;;;17.27;5.63;;;;;;;18.39;36.38;101710.66;20828509;28;20064;-71
2021/03/30 11:57:05;;;;;;;8.13;4.88;;;;;;;18.65;35.66;101701.84;20837640;28;20053;-70
2021/03/30 12:07:06;;;;;;;10.07;4.65;;;;;;;19.03;34.43;101696.59;20848640;28;20045;-70
2021/03/30 12:17:17;;;;;;;9.35;4.40;;;;;;;19.06;35.33;101672.50;20842945;28;20037;-69
2021/03/30 12:27:18;;;;;;;10.32;4.45;;;;;;;19.58;33.76;101650.25;20838553;28;20037;-69
2021/03/30 12:37:19;;;;;;;7.65;3.53;;;;;;;19.53;35.80;101645.28;20839609;28;20040;-69
2021/03/30 12:47:20;;;;;;;9.27;3.33;;;;;;;20.02;32.46;101629.25;20838215;28;20060;-70
2021/03/30 12:57:21;;;;;;;11.05;3.90;;;;;;;20.16;32.44;101620.28;20850661;28;20072;-71
2021/03/30 13:07:22;;;;;;;8.20;3.15;;;;;;;20.05;33.21;101607.78;20837859;28;20037;-71
2021/03/30 13:17:23;;;;;;;10.68;3.35;;;;;;;20.73;28.98;101593.72;20858909;28;20037;-71
2021/03/30 13:27:24;;;;;;;9.32;2.50;;;;;;;20.69;28.66;101581.63;20869018;28;20105;-71
2021/03/30 13:37:25;;;;;;;5.70;2.45;;;;;;;20.29;26.85;101562.53;20859708;28;20114;-70
2021/03/30 13:47:26;;;;;;;4.70;2.20;;;;;;;20.58;26.27;101546.16;20835570;28;20038;-72
2021/03/30 13:57:27;;;;;;;5.68;2.50;;;;;;;21.23;26.05;101539.16;20841264;28;20123;-72
2021/03/30 14:07:28;;;;;;;8.75;2.20;;;;;;;21.05;24.57;101519.31;20834119;28;20088;-73
2021/03/30 14:17:41;;;;;;;7.03;2.20;;;;;;;20.87;24.50;101505.69;20831662;28;20046;-72
2021/03/30 14:27:43;;;;;;;5.03;1.95;;;;;;;21.53;22.19;101493.22;20833022;28;20547;-73
2021/03/30 14:38:05;;;;;;;6.22;1.80;;;;;;;21.78;19.53;101481.34;20827137;28;20400;-72
2021/03/30 14:58:56;;;;;;;5.15;2.10;;;;;;;21.64;21.26;101462.97;20826898;28;20136;-73
2021/03/30 15:08:58;;;;;;;6.63;2.00;;;;;;;21.73;21.75;101451.56;20817176;28;20535;-72
2021/03/30 15:19:19;;;;;;;6.70;2.00;;;;;;;21.93;21.85;101442.72;20846181;28;20080;-70
2021/03/30 15:29:20;;;;;;;7.13;2.05;;;;;;;21.79;19.82;101435.03;20828085;28;20045;-73
2021/03/30 15:39:21;;;;;;;8.25;1.90;;;;;;;21.74;21.73;101415.91;20830958;28;20041;-71
2021/03/30 15:49:22;;;;;;;5.40;1.85;;;;;;;21.99;21.42;101412.88;20826036;28;20045;-72
2021/03/30 15:59:23;;;;;;;6.68;1.70;;;;;;;21.46;22.82;101389.94;20832019;28;20045;-71
2021/03/30 16:09:24;;;;;;;5.50;2.08;;;;;;;21.42;22.46;101391.16;20824280;28;20840;-70
2021/03/30 16:19:26;;;;;;;6.70;2.03;;;;;;;21.74;21.81;101373.28;20845456;28;20068;-69
2021/03/30 16:29:27;;;;;;;7.18;1.88;;;;;;;21.46;21.12;101368.63;20851476;28;20176;-71
2021/03/30 16:39:48;;;;;;;5.63;2.00;;;;;;;21.51;20.56;101361.94;20840527;28;20067;-70
2021/03/30 16:49:51;;;;;;;6.28;1.95;;;;;;;21.31;20.41;101358.28;20825522;28;20051;-70
2021/03/30 16:59:52;;;;;;;7.97;1.90;;;;;;;21.14;21.13;101350.00;20813241;28;20048;-74
2021/03/30 17:09:53;;;;;;;6.88;1.98;;;;;;;20.81;21.88;101346.47;20832045;28;20571;-74
2021/03/30 17:19:54;;;;;;;4.78;1.77;;;;;;;20.46;22.05;101351.16;20860805;28;20045;-72
2021/03/30 17:29:55;;;;;;;10.43;2.03;;;;;;;19.97;23.17;101346.19;20894421;28;20507;-72
2021/03/30 17:39:56;;;;;;;4.18;1.95;;;;;;;18.98;26.89;101347.59;20839748;28;20045;-73
2021/03/30 17:49:59;;;;;;;6.07;2.22;;;;;;;18.20;28.45;101342.63;20838779;28;20370;-72
2021/03/30 18:00:00;;;;;;;6.07;2.20;;;;;;;17.50;29.34;101334.25;20838863;28;20034;-71
2021/03/30 18:10:04;;;;;;;7.60;2.08;;;;;;;17.03;30.10;101334.81;20836326;28;20443;-71
2021/03/30 18:20:06;;;;;;;7.07;2.17;;;;;;;16.37;31.59;101336.50;20816752;28;20099;-71
2021/03/30 18:30:09;;;;;;;9.60;3.47;;;;;;;15.80;33.28;101328.59;20830085;28;20508;-71
2021/03/30 18:40:12;;;;;;;6.35;2.72;;;;;;;15.40;34.04;101335.41;20833667;28;20053;-71
2021/03/30 18:50:15;;;;;;;8.90;2.97;;;;;;;15.10;34.83;101322.22;20852735;28;20064;-71
2021/03/30 19:10:18;;;;;;;9.60;3.20;;;;;;;14.52;35.24;101316.81;20869642;28;20072;-72
2021/03/30 19:20:19;;;;;;;6.68;2.40;;;;;;;14.17;36.40;101318.69;20837850;28;20045;-72
2021/03/30 19:40:53;;;;;;;6.82;2.53;;;;;;;13.31;38.46;101311.00;20806899;28;20052;-73
2021/03/30 19:50:56;;;;;;;7.05;2.90;;;;;;;13.12;39.33;101304.97;20841807;28;20559;-72
2021/03/30 20:00:58;;;;;;;5.85;2.60;;;;;;;12.88;39.06;101298.28;20842242;28;20051;-73
2021/03/30 20:10:58;;;;;;;5.95;2.70;;;;;;;12.63;38.51;101304.75;20865110;28;20455;-72
2021/03/30 20:21:00;;;;;;;6.30;2.95;;;;;;;12.40;40.93;101292.69;20837860;28;20107;-72
2021/03/30 20:31:01;;;;;;;5.95;2.70;;;;;;;12.20;41.61;101300.66;20843250;28;20125;-71
2021/03/30 20:41:02;;;;;;;10.15;4.03;;;;;;;11.95;44.32;101303.56;20852889;28;20044;-72
2021/03/30 20:51:04;;;;;;;8.52;3.60;;;;;;;11.77;44.69;101314.03;20817689;28;20041;-71
2021/03/30 21:01:05;;;;;;;14.98;7.35;;;;;;;11.65;45.48;101299.66;20818779;28;20107;-71
2021/03/30 21:11:06;;;;;;;18.52;7.80;;;;;;;11.46;47.45;101294.38;20845493;28;20041;-73
2021/03/30 21:21:07;;;;;;;10.50;5.45;;;;;;;11.33;47.89;101294.94;20864296;28;20038;-71
2021/03/30 21:31:08;;;;;;;11.02;4.85;;;;;;;11.10;48.45;101283.69;20864521;28;20045;-72
2021/03/30 21:41:11;;;;;;;11.35;4.13;;;;;;;10.81;52.04;101278.81;20872668;28;20041;-71
2021/03/30 21:51:13;;;;;;;10.60;4.32;;;;;;;10.63;52.58;101275.19;20872582;28;20048;-71
2021/03/30 22:01:14;;;;;;;9.85;4.28;;;;;;;10.35;53.25;101277.19;20894850;28;20504;-71
2021/03/30 22:11:15;;;;;;;10.13;4.60;;;;;;;10.37;52.09;101266.66;20835917;28;20076;-71
2021/03/30 22:21:16;;;;;;;15.27;5.38;;;;;;;10.34;52.29;101256.31;20823574;28;20050;-72
2021/03/30 22:31:17;;;;;;;12.57;6.25;;;;;;;10.44;53.26;101257.66;20816785;28;20053;-72
2021/03/30 22:41:18;;;;;;;11.75;6.05;;;;;;;10.23;54.62;101249.75;20852586;28;20513;-73
2021/03/30 22:51:19;;;;;;;12.18;5.50;;;;;;;10.04;56.30;101250.47;20812861;28;20537;-73
2021/03/30 23:01:20;;;;;;;11.43;5.35;;;;;;;9.94;56.61;101246.50;20814765;28;20045;-72
2021/03/30 23:11:21;;;;;;;10.80;5.45;;;;;;;9.76;57.86;101240.19;20844463;28;20496;-72
2021/03/30 23:21:22;;;;;;;12.20;5.70;;;;;;;9.61;57.74;101244.25;20860797;28;20460;-71
2021/03/30 23:31:23;;;;;;;12.05;5.35;;;;;;;9.39;59.89;101249.41;20829898;28;20050;-72
2021/03/30 23:41:24;;;;;;;12.50;5.35;;;;;;;9.39;59.34;101238.09;20836947;28;20038;-73
2021/03/30 23:51:25;;;;;;;11.65;6.10;;;;;;;9.28;60.64;101229.78;20829044;28;20055;-73
